Poplar Bluff, MO

9:14 AM CST on March 05, 2015 (GMT -0600)
Poplar Bluff Municipal | Change Station
CLOSE
Current Station
Airport
Location: Poplar Bluff,
Elevation: 328 ft
Nearby Weather Stations

Elev 328 ft 36.77 °N, 90.32 °W | Updated 21 minutes ago

Clear
Clear
23 °F
Feels Like 13 °F
N
9
Wind Variable Wind from North

Today
High -- | Low -- °F
--% Chance of Precip.
Yesterday
High -- | Low -- °F
Precip. -- in
6:26 AM 5:59 PM
Full, 100% visible
Pressure 30.53 in
Visibility 10.0 miles
Clouds Clear
Windchill 13 °F
Dew Point 8 °F
Humidity 53%
Rainfall 0.00 in
Snow Depth Not available.
UV 2 out of 12
Pollen .90 out of 12
Air Quality Not available.
Flu Activity Not available.
METAR KPOF 051453Z AUTO 35008KT 10SM UP CLR M05/M13 A3049 RMK AO2 UPB23SNB1357E23 SLP336 P0000 60000 T10501133 53022

More Conditions Fewer Conditions

Pressure 30.53 in
Visibility 10.0 miles
Clouds Clear
Windchill 13 °F
Dew Point 8 °F
Humidity 53%
Rainfall 0.00 in
Snow Depth Not available.
UV 2 out of 12
Pollen .90 out of 12
Air Quality Not available.
Flu Activity Not available.
METAR KPOF 051453Z AUTO 35008KT 10SM UP CLR M05/M13 A3049 RMK AO2 UPB23SNB1357E23 SLP336 P0000 60000 T10501133 53022

More Conditions Fewer Conditions

10-Day Weather Forecast

Almanac

Astronomy

Mar. 05, 2015 Rise Set
Actual Time
Civil Twilight
Nautical Twilight
Astronomical Twilight
Moon
Length of Visible Light
Length of Day
Tomorrow will be .
, % of the Moon is Illuminated

Today's Extremes

State Highs State Lows

Community

WunderPhotos

Upload Photos

1,802,806 photos uploaded!

WunderBlogs® & News

Nearby

Air Quality

  Air Quality AQ Index Pollutant
Not available.

Snow Depth

Station Depth Elevation

Earthquake Activity

City Distance Mag. Time & Date
Minimum magnitude displayed is 2.5.

Coastal Water Temperatures

Place Temperature

Nearby Weather Stations